Time;durP1;ratioP1;P1;durP2;ratioP2;P2;SDS_P1;SDS_P2;PMS_P1;PMS_P2;Temp;Humidity;BMP_temperature;BMP_pressure;BME280_temperature;BME280_humidity;BME280_pressure;Samples;Min_cycle;Max_cycle;Signal;HPM_P1;HPM_P2
2022/06/28 00:02:00;;;;;;;37.38;24.10;;;12.10;99.90;;;;;;5049828;28;20040;-36
2022/06/28 00:04:26;;;;;;;43.22;25.92;;;12.00;99.90;;;;;;5049462;28;20041;-36
2022/06/28 00:06:52;;;;;;;33.10;22.02;;;12.90;99.90;;;;;;5049309;28;20106;-36
2022/06/28 00:09:18;;;;;;;35.15;22.40;;;11.90;99.90;;;;;;5049170;28;20060;-36
2022/06/28 00:11:44;;;;;;;43.42;26.02;;;11.90;99.90;;;;;;5049344;28;20037;-36
2022/06/28 00:16:55;;;;;;;55.15;24.95;;;11.90;99.90;;;;;;5053756;28;20067;-36
2022/06/28 00:19:21;;;;;;;48.05;24.55;;;11.70;99.90;;;;;;5053713;28;20459;-36
2022/06/28 00:21:48;;;;;;;30.88;21.05;;;11.70;99.90;;;;;;5054004;28;20483;-36
2022/06/28 00:24:14;;;;;;;40.70;24.90;;;12.00;99.90;;;;;;5053853;28;20059;-36
2022/06/28 00:26:41;;;;;;;34.92;23.65;;;12.00;99.90;;;;;;5053778;28;20182;-36
2022/06/28 00:29:07;;;;;;;42.78;25.95;;;12.00;99.90;;;;;;5053514;28;20037;-36
2022/06/28 00:31:33;;;;;;;44.72;24.70;;;12.10;99.90;;;;;;5053416;28;20531;-36
2022/06/28 00:33:59;;;;;;;52.38;26.83;;;12.20;99.90;;;;;;5053058;28;20037;-36
2022/06/28 00:36:24;;;;;;;57.25;28.35;;;11.30;99.90;;;;;;5053284;28;20127;-36
2022/06/28 00:38:50;;;;;;;54.08;28.25;;;11.40;99.90;;;;;;5053067;28;20421;-36
2022/06/28 00:41:16;;;;;;;59.17;27.88;;;11.10;99.90;;;;;;5053242;28;20186;-36
2022/06/28 00:43:42;;;;;;;52.88;26.40;;;12.40;99.90;;;;;;5053244;28;20033;-36
2022/06/28 00:46:08;;;;;;;49.70;26.40;;;11.20;99.90;;;;;;5051780;28;20452;-36
2022/06/28 00:48:34;;;;;;;56.35;28.20;;;11.10;99.90;;;;;;5052881;28;20167;-36
2022/06/28 00:51:01;;;;;;;50.30;27.83;;;11.10;99.90;;;;;;5053430;28;20040;-36
2022/06/28 00:53:27;;;;;;;53.75;26.70;;;12.10;99.90;;;;;;5052907;28;20500;-36
2022/06/28 00:55:53;;;;;;;56.28;27.90;;;11.10;99.90;;;;;;5052962;28;20116;-36
2022/06/28 00:58:19;;;;;;;43.15;25.70;;;11.10;99.90;;;;;;5052555;28;20195;-36
2022/06/28 01:00:48;;;;;;;41.60;24.08;;;12.10;99.90;;;;;;5053090;28;20051;-36
2022/06/28 01:03:19;;;;;;;45.72;25.30;;;11.10;99.90;;;;;;5052140;28;20033;-36
2022/06/28 01:05:46;;;;;;;43.90;26.03;;;11.60;99.90;;;;;;5052406;28;20084;-36
2022/06/28 01:08:12;;;;;;;37.03;23.30;;;11.10;99.90;;;;;;5051937;28;20550;-36
2022/06/28 01:10:38;;;;;;;45.67;25.20;;;11.10;99.90;;;;;;5051774;28;20040;-36
2022/06/28 01:13:06;;;;;;;41.00;23.95;;;11.00;99.90;;;;;;5052187;28;20537;-36
2022/06/28 01:15:33;;;;;;;64.13;28.90;;;11.00;99.90;;;;;;5052569;28;20040;-36
2022/06/28 01:18:03;;;;;;;55.88;27.40;;;10.90;99.90;;;;;;5050082;28;20399;-36
2022/06/28 01:20:29;;;;;;;47.88;26.15;;;11.00;99.90;;;;;;5052470;28;20076;-36
2022/06/28 01:22:55;;;;;;;55.67;27.42;;;11.00;99.90;;;;;;5052472;28;20473;-35
2022/06/28 01:25:22;;;;;;;34.08;23.50;;;11.00;99.90;;;;;;5050801;28;20437;-35
2022/06/28 01:27:48;;;;;;;68.30;29.70;;;11.80;99.90;;;;;;5052432;28;20088;-36
2022/06/28 01:30:14;;;;;;;70.15;31.17;;;11.10;99.90;;;;;;5051961;28;20045;-36
2022/06/28 01:32:40;;;;;;;61.40;28.55;;;10.90;99.90;;;;;;5052252;28;20045;-36
2022/06/28 01:35:07;;;;;;;54.28;27.83;;;10.90;99.90;;;;;;5051995;28;20056;-36
2022/06/28 01:37:34;;;;;;;85.43;31.00;;;10.90;99.90;;;;;;5052016;28;20048;-36
2022/06/28 01:40:00;;;;;;;69.93;29.55;;;10.80;99.90;;;;;;5052143;28;20525;-36
2022/06/28 01:42:29;;;;;;;70.80;28.85;;;10.90;99.90;;;;;;5052273;28;20055;-36
2022/06/28 01:44:57;;;;;;;38.70;24.42;;;10.80;99.90;;;;;;5052304;28;20044;-36
2022/06/28 01:47:25;;;;;;;44.85;26.10;;;10.70;99.90;;;;;;5052035;28;20049;-36
2022/06/28 01:49:51;;;;;;;41.50;25.25;;;10.90;99.90;;;;;;5052085;28;20037;-37
2022/06/28 01:52:17;;;;;;;57.67;28.95;;;11.20;99.90;;;;;;5051604;28;20487;-36
2022/06/28 01:54:43;;;;;;;51.33;27.73;;;11.60;99.90;;;;;;5052020;28;20036;-36
2022/06/28 01:57:09;;;;;;;64.68;29.77;;;10.90;99.90;;;;;;5051031;28;20121;-36
2022/06/28 01:59:37;;;;;;;40.47;25.08;;;12.30;99.90;;;;;;5051882;28;20132;-36
2022/06/28 02:02:04;;;;;;;71.05;31.52;;;11.50;99.90;;;;;;5051516;28;20060;-36
2022/06/28 02:04:30;;;;;;;47.53;26.98;;;10.80;99.90;;;;;;5051275;28;20129;-36
2022/06/28 02:06:57;;;;;;;47.15;27.67;;;11.00;99.90;;;;;;5051404;28;20124;-36
2022/06/28 02:09:23;;;;;;;61.63;28.05;;;10.80;99.90;;;;;;5051232;28;20049;-36
2022/06/28 02:11:49;;;;;;;55.25;29.33;;;10.80;99.90;;;;;;5051126;28;20044;-36
2022/06/28 02:14:15;;;;;;;48.13;26.55;;;10.80;99.90;;;;;;5050854;28;20044;-36
2022/06/28 02:16:41;;;;;;;65.40;32.03;;;10.80;99.90;;;;;;5051677;28;20033;-36
2022/06/28 02:19:07;;;;;;;41.25;25.50;;;11.50;99.90;;;;;;5051254;28;20105;-35
2022/06/28 02:21:41;;;;;;;56.45;29.60;;;10.50;99.90;;;;;;5049651;28;20048;-36
2022/06/28 02:24:09;;;;;;;46.35;26.40;;;10.70;99.90;;;;;;5051059;28;20506;-35
2022/06/28 02:26:35;;;;;;;44.92;26.30;;;10.70;99.90;;;;;;5051527;28;20049;-36
2022/06/28 02:29:03;;;;;;;43.00;26.50;;;10.60;99.90;;;;;;5051296;28;20101;-36
2022/06/28 02:31:29;;;;;;;71.32;30.02;;;10.60;99.90;;;;;;5051181;28;20039;-36
2022/06/28 02:33:55;;;;;;;64.30;30.10;;;11.60;99.90;;;;;;5051277;28;20037;-36
2022/06/28 02:41:36;;;;;;;71.55;31.10;;;10.50;99.90;;;;;;5051237;28;20045;-36
2022/06/28 02:44:02;;;;;;;42.55;26.02;;;10.50;99.90;;;;;;5051135;28;20044;-36
2022/06/28 02:46:27;;;;;;;48.53;26.35;;;10.40;99.90;;;;;;5050677;28;20055;-36
2022/06/28 02:48:53;;;;;;;45.22;25.40;;;11.40;99.90;;;;;;5050790;28;20040;-36
2022/06/28 02:51:20;;;;;;;43.97;25.10;;;10.50;99.90;;;;;;5050571;28;20202;-36
2022/06/28 02:53:46;;;;;;;46.05;26.33;;;10.50;99.90;;;;;;5050798;28;20033;-36
2022/06/28 02:56:12;;;;;;;49.13;27.35;;;10.50;99.90;;;;;;5049232;28;20049;-36
2022/06/28 02:58:37;;;;;;;51.42;27.17;;;10.50;99.90;;;;;;5050756;28;20051;-36
2022/06/28 03:01:03;;;;;;;69.93;30.88;;;10.60;99.90;;;;;;5051018;28;20378;-36
2022/06/28 03:03:29;;;;;;;61.28;29.77;;;10.80;99.90;;;;;;5050198;28;20134;-36
2022/06/28 03:05:55;;;;;;;65.60;30.13;;;10.40;99.90;;;;;;5050513;28;20048;-36
2022/06/28 03:08:21;;;;;;;63.85;30.35;;;10.50;99.90;;;;;;5050033;28;20052;-36
2022/06/28 03:10:46;;;;;;;52.67;28.95;;;10.50;99.90;;;;;;5049946;28;20463;-36
2022/06/28 03:13:12;;;;;;;50.95;26.08;;;10.40;99.90;;;;;;5050408;28;20401;-36
2022/06/28 03:15:38;;;;;;;71.20;30.30;;;10.40;99.90;;;;;;5049785;28;20033;-36
2022/06/28 03:18:04;;;;;;;46.70;27.95;;;10.40;99.90;;;;;;5050681;28;20037;-36
2022/06/28 03:20:29;;;;;;;71.72;31.98;;;10.40;99.90;;;;;;5050153;28;20056;-36
2022/06/28 03:22:56;;;;;;;56.30;28.77;;;10.50;99.90;;;;;;5050400;28;20124;-36
2022/06/28 03:25:21;;;;;;;71.82;33.08;;;10.80;99.90;;;;;;5048647;28;20085;-36
2022/06/28 03:27:47;;;;;;;67.57;31.15;;;10.20;99.90;;;;;;5050504;28;20458;-36
2022/06/28 03:30:14;;;;;;;53.55;28.15;;;10.50;99.90;;;;;;5050237;28;20029;-36
2022/06/28 03:32:40;;;;;;;71.60;31.70;;;10.80;99.90;;;;;;5050140;28;20049;-36
2022/06/28 03:35:06;;;;;;;35.50;23.98;;;10.70;99.90;;;;;;5050008;28;20067;-36
2022/06/28 03:37:32;;;;;;;49.17;28.42;;;10.30;99.90;;;;;;5050038;28;20114;-36
2022/06/28 03:39:58;;;;;;;42.97;27.13;;;10.60;99.90;;;;;;5050206;28;20429;-36
2022/06/28 03:42:24;;;;;;;53.53;29.52;;;11.40;99.90;;;;;;5049999;28;20052;-36
2022/06/28 03:44:50;;;;;;;54.92;30.30;;;10.50;99.90;;;;;;5050058;28;20036;-36
2022/06/28 03:47:16;;;;;;;80.22;35.33;;;11.50;99.90;;;;;;5049663;28;20377;-36
2022/06/28 03:49:41;;;;;;;65.20;31.58;;;11.00;99.90;;;;;;5054362;28;20041;-35
2022/06/28 03:52:07;;;;;;;55.45;29.70;;;10.60;99.90;;;;;;5053719;28;20135;-36
2022/06/28 03:54:33;;;;;;;83.13;35.20;;;10.60;99.90;;;;;;5054025;28;20041;-36
2022/06/28 03:56:59;;;;;;;63.63;31.55;;;10.60;99.90;;;;;;5054313;28;20041;-36
2022/06/28 03:59:24;;;;;;;81.82;33.20;;;10.60;99.90;;;;;;5054094;28;20040;-36
2022/06/28 04:01:50;;;;;;;60.50;30.13;;;10.60;99.90;;;;;;5054298;28;20493;-36
2022/06/28 04:04:16;;;;;;;43.38;27.13;;;10.60;99.90;;;;;;5053633;28;20445;-36
2022/06/28 04:06:42;;;;;;;41.03;27.40;;;10.60;99.90;;;;;;5053711;28;20131;-36
2022/06/28 04:09:08;;;;;;;78.70;34.15;;;10.60;99.90;;;;;;5052385;28;20106;-36
2022/06/28 04:11:33;;;;;;;62.38;31.23;;;10.80;99.90;;;;;;5051902;28;20049;-35
2022/06/28 04:13:59;;;;;;;54.45;28.35;;;10.70;99.90;;;;;;5050341;28;20468;-41
2022/06/28 04:16:25;;;;;;;46.90;28.05;;;11.10;99.90;;;;;;5046077;28;20044;-43
2022/06/28 04:18:51;;;;;;;46.40;28.95;;;10.90;99.90;;;;;;5046081;28;20776;-41
2022/06/28 04:21:19;;;;;;;66.55;32.63;;;11.10;99.90;;;;;;5050241;28;20099;-39
2022/06/28 04:23:45;;;;;;;55.25;31.55;;;11.40;99.90;;;;;;5050546;28;20049;-39
2022/06/28 04:26:11;;;;;;;67.93;35.15;;;11.00;99.90;;;;;;5050380;28;20044;-38
2022/06/28 04:28:37;;;;;;;46.08;30.58;;;12.10;99.90;;;;;;5049824;28;20094;-38
2022/06/28 04:31:03;;;;;;;48.30;32.25;;;12.90;99.90;;;;;;5049893;28;20049;-39
2022/06/28 04:33:29;;;;;;;40.85;29.08;;;13.30;99.90;;;;;;5049937;28;20157;-38
2022/06/28 04:35:55;;;;;;;37.05;28.23;;;13.00;99.90;;;;;;5051854;28;20492;-38
2022/06/28 04:38:22;;;;;;;35.60;26.35;;;12.90;99.90;;;;;;5051364;28;20635;-38
2022/06/28 04:40:48;;;;;;;32.65;23.67;;;12.80;99.90;;;;;;5051693;28;20041;-38
2022/06/28 04:43:14;;;;;;;41.05;26.67;;;12.70;99.90;;;;;;5051517;28;20581;-38
2022/06/28 04:45:40;;;;;;;26.08;22.73;;;12.70;99.90;;;;;;5051282;28;20151;-38
2022/06/28 04:48:06;;;;;;;29.10;23.10;;;12.70;99.90;;;;;;5050781;28;20044;-38
2022/06/28 04:50:32;;;;;;;30.90;21.85;;;12.70;99.90;;;;;;5050826;28;20047;-38
2022/06/28 04:52:58;;;;;;;25.33;20.25;;;12.90;99.90;;;;;;5051137;28;20453;-38
2022/06/28 04:55:24;;;;;;;25.05;20.83;;;12.80;99.90;;;;;;5050687;28;20052;-38
2022/06/28 04:57:50;;;;;;;31.23;23.02;;;12.90;99.90;;;;;;5050764;28;20501;-38
2022/06/28 05:00:17;;;;;;;25.90;21.50;;;12.90;99.90;;;;;;5051075;28;20045;-38
2022/06/28 05:02:43;;;;;;;29.40;21.52;;;13.00;99.90;;;;;;5051039;28;20045;-38
2022/06/28 05:05:09;;;;;;;25.20;20.35;;;13.20;99.90;;;;;;5051094;28;20095;-38
2022/06/28 05:07:36;;;;;;;22.35;19.73;;;13.30;99.90;;;;;;5050512;28;20513;-38
2022/06/28 05:10:03;;;;;;;18.20;16.33;;;13.40;99.90;;;;;;5050881;28;20432;-38
2022/06/28 05:12:29;;;;;;;27.77;20.23;;;13.50;99.90;;;;;;5050708;28;20037;-38
2022/06/28 05:14:55;;;;;;;19.70;16.70;;;13.60;99.90;;;;;;5050700;28;20043;-38
2022/06/28 05:17:20;;;;;;;19.30;17.30;;;13.70;99.90;;;;;;5050633;28;20502;-38
2022/06/28 05:19:46;;;;;;;19.38;17.30;;;13.80;99.90;;;;;;5051135;28;20048;-38
2022/06/28 05:22:12;;;;;;;20.45;17.77;;;13.90;99.90;;;;;;5050703;28;20505;-38
2022/06/28 05:24:38;;;;;;;18.80;16.83;;;14.00;99.90;;;;;;5050862;28;20041;-38
2022/06/28 05:27:05;;;;;;;19.88;16.00;;;14.20;99.90;;;;;;5050691;28;20040;-38
2022/06/28 05:29:30;;;;;;;19.27;16.52;;;14.30;99.90;;;;;;5050394;28;20041;-38
2022/06/28 05:31:56;;;;;;;17.92;16.05;;;15.30;99.90;;;;;;5050195;28;20044;-38
2022/06/28 05:34:22;;;;;;;18.40;15.32;;;14.60;99.90;;;;;;5050458;28;20048;-38
2022/06/28 05:36:48;;;;;;;19.30;14.98;;;14.80;99.90;;;;;;5049913;28;20041;-38
2022/06/28 05:39:14;;;;;;;20.42;16.55;;;14.90;99.90;;;;;;5050192;28;20048;-38
2022/06/28 05:41:41;;;;;;;18.00;13.27;;;15.20;99.90;;;;;;5050232;28;20041;-38
2022/06/28 05:44:08;;;;;;;15.25;13.45;;;15.50;99.90;;;;;;5050261;28;20052;-39
2022/06/28 05:46:33;;;;;;;15.98;13.18;;;16.10;99.90;;;;;;5048430;28;20086;-38
2022/06/28 05:48:59;;;;;;;13.48;11.52;;;17.40;99.90;;;;;;5050502;28;20045;-38
2022/06/28 05:51:25;;;;;;;12.85;11.38;;;18.20;99.90;;;;;;5050643;28;20098;-38
2022/06/28 05:53:50;;;;;;;12.93;11.52;;;19.00;99.90;;;;;;5050392;28;20045;-38
2022/06/28 05:56:16;;;;;;;15.13;10.60;;;18.60;99.90;;;;;;5049493;28;20045;-39
2022/06/28 05:58:42;;;;;;;13.50;11.75;;;18.40;99.90;;;;;;5049333;28;20045;-39
2022/06/28 06:01:07;;;;;;;12.30;9.82;;;18.30;99.90;;;;;;5049855;28;20127;-39
2022/06/28 06:03:33;;;;;;;13.10;9.52;;;18.60;99.90;;;;;;5049961;28;20522;-39
2022/06/28 06:05:59;;;;;;;10.85;8.75;;;19.40;99.90;;;;;;5049226;28;20061;-39
2022/06/28 06:08:25;;;;;;;9.93;8.07;;;20.50;99.90;;;;;;5048559;28;20041;-39
2022/06/28 06:10:51;;;;;;;11.68;6.97;;;21.20;99.90;;;;;;5048777;28;20043;-39
2022/06/28 06:13:17;;;;;;;7.72;6.85;;;22.80;99.90;;;;;;5049722;28;20247;-39
2022/06/28 06:15:42;;;;;;;8.57;6.90;;;23.90;99.90;;;;;;5049296;28;20033;-39
2022/06/28 06:18:08;;;;;;;12.20;6.53;;;25.20;99.90;;;;;;5049530;28;20099;-39
2022/06/28 06:20:34;;;;;;;9.32;6.45;;;26.20;97.60;;;;;;5048891;28;20052;-39
2022/06/28 06:22:59;;;;;;;12.05;6.55;;;26.60;95.40;;;;;;5049186;28;20045;-39
2022/06/28 06:25:25;;;;;;;11.43;5.75;;;25.30;96.10;;;;;;5049470;28;20041;-39
2022/06/28 06:27:51;;;;;;;6.32;5.07;;;25.20;97.40;;;;;;5049309;28;20037;-39
2022/06/28 06:30:16;;;;;;;8.88;5.43;;;25.40;98.20;;;;;;5048990;28;20040;-39
2022/06/28 06:32:42;;;;;;;7.25;4.43;;;26.70;95.40;;;;;;5049131;28;20043;-39
2022/06/28 06:35:08;;;;;;;6.93;4.32;;;28.00;92.30;;;;;;5049310;28;20056;-39
2022/06/28 06:37:35;;;;;;;9.88;5.05;;;28.30;91.00;;;;;;5048208;28;20044;-39
2022/06/28 06:40:00;;;;;;;4.72;3.38;;;28.70;88.00;;;;;;5049500;28;20039;-39
2022/06/28 06:42:26;;;;;;;8.15;3.47;;;29.10;86.70;;;;;;5049046;28;20032;-41
2022/06/28 06:44:52;;;;;;;7.72;4.20;;;30.30;81.80;;;;;;5048703;28;20067;-39
2022/06/28 06:47:18;;;;;;;6.07;3.10;;;31.30;77.30;;;;;;5048595;28;20462;-40
2022/06/28 06:49:44;;;;;;;5.03;3.05;;;32.30;74.00;;;;;;5048494;28;20080;-40
2022/06/28 06:52:09;;;;;;;6.63;3.13;;;33.10;71.20;;;;;;5048326;28;20049;-40
2022/06/28 06:54:35;;;;;;;4.55;2.58;;;33.80;68.40;;;;;;5048492;28;20398;-39
2022/06/28 06:57:01;;;;;;;5.90;2.08;;;34.20;66.70;;;;;;5048092;28;20130;-40
2022/06/28 06:59:27;;;;;;;4.13;2.00;;;34.70;66.00;;;;;;5048501;28;20041;-39
2022/06/28 07:01:52;;;;;;;7.20;2.00;;;35.10;63.40;;;;;;5047917;28;20044;-40
2022/06/28 07:04:18;;;;;;;8.65;2.33;;;35.60;62.70;;;;;;5047905;28;20124;-39
2022/06/28 07:06:44;;;;;;;7.38;2.03;;;35.60;62.20;;;;;;5047010;28;20057;-39
2022/06/28 07:09:10;;;;;;;8.00;2.83;;;35.60;61.30;;;;;;5048284;28;20040;-40
2022/06/28 07:11:35;;;;;;;6.90;2.17;;;36.00;59.70;;;;;;5047960;28;20041;-40
2022/06/28 07:14:02;;;;;;;5.82;2.17;;;36.40;58.30;;;;;;5048261;28;20045;-40
2022/06/28 07:16:27;;;;;;;7.55;2.40;;;36.70;58.00;;;;;;5047455;28;20131;-37
2022/06/28 07:18:53;;;;;;;6.07;2.40;;;37.10;57.00;;;;;;5048213;28;20136;-38
2022/06/28 07:21:19;;;;;;;6.05;2.25;;;37.20;54.50;;;;;;5047396;28;20399;-38
2022/06/28 07:23:45;;;;;;;6.25;1.30;;;36.70;56.40;;;;;;5048110;28;20084;-37
2022/06/28 07:26:11;;;;;;;8.05;1.30;;;37.10;55.20;;;;;;5048580;28;20032;-37
2022/06/28 07:28:37;;;;;;;5.68;1.77;;;37.30;56.00;;;;;;5046394;28;20060;-38
2022/06/28 07:31:03;;;;;;;6.38;1.38;;;36.30;54.90;;;;;;5047879;28;20063;-38
2022/06/28 07:33:28;;;;;;;5.25;1.40;;;36.10;54.90;;;;;;5048097;28;20470;-38
2022/06/28 07:35:54;;;;;;;4.28;1.20;;;35.00;55.20;;;;;;5047924;28;20434;-38
2022/06/28 07:38:20;;;;;;;4.35;1.40;;;33.10;56.20;;;;;;5047807;28;20045;-38
2022/06/28 07:40:46;;;;;;;6.43;2.00;;;32.90;57.00;;;;;;5047678;28;20367;-37
2022/06/28 07:43:11;;;;;;;4.97;1.58;;;32.20;58.50;;;;;;5047436;28;20437;-38
2022/06/28 07:45:39;;;;;;;5.95;1.50;;;30.70;60.40;;;;;;5047951;28;20052;-37
2022/06/28 07:48:06;;;;;;;7.93;2.10;;;31.40;61.50;;;;;;5047884;28;20049;-37
2022/06/28 07:53:17;;;;;;;5.15;1.10;;;34.10;59.30;;;;;;5048002;28;20533;-38
2022/06/28 07:55:43;;;;;;;4.65;1.27;;;35.40;56.50;;;;;;5047732;28;20247;-39
2022/06/28 07:58:09;;;;;;;8.73;1.20;;;36.40;55.60;;;;;;5047604;28;20127;-39
2022/06/28 08:00:34;;;;;;;5.45;1.58;;;36.30;54.90;;;;;;5047699;28;20467;-39
2022/06/28 08:03:00;;;;;;;6.43;1.30;;;36.30;54.20;;;;;;5047248;28;20040;-39
2022/06/28 08:05:27;;;;;;;5.10;1.70;;;36.20;54.10;;;;;;5047492;28;20048;-38
2022/06/28 08:07:52;;;;;;;5.60;1.30;;;35.20;53.20;;;;;;5047215;28;20060;-37
2022/06/28 08:10:18;;;;;;;3.83;1.00;;;34.60;53.60;;;;;;5046929;28;20045;-38
2022/06/28 08:12:44;;;;;;;5.20;0.82;;;35.40;55.30;;;;;;5047329;28;20406;-37
2022/06/28 08:15:11;;;;;;;5.97;0.68;;;36.30;54.50;;;;;;5047112;28;20709;-40
2022/06/28 08:17:36;;;;;;;7.35;1.42;;;37.20;52.60;;;;;;5047208;28;20133;-39
2022/06/28 08:20:02;;;;;;;4.95;0.88;;;38.10;52.00;;;;;;5046714;28;20123;-40
2022/06/28 08:22:28;;;;;;;6.63;0.85;;;38.10;50.40;;;;;;5046953;28;20395;-38
2022/06/28 08:24:54;;;;;;;3.30;0.52;;;37.80;50.10;;;;;;5046906;28;20043;-39
2022/06/28 08:27:19;;;;;;;4.55;0.93;;;38.60;50.90;;;;;;5047221;28;20507;-38
2022/06/28 08:29:46;;;;;;;3.90;0.60;;;39.20;49.90;;;;;;5047268;28;20056;-38
2022/06/28 08:32:13;;;;;;;5.95;0.95;;;39.60;49.60;;;;;;5047409;28;20040;-38
2022/06/28 08:34:39;;;;;;;5.40;1.17;;;39.90;48.00;;;;;;5050716;28;20044;-39
2022/06/28 08:37:06;;;;;;;4.30;0.70;;;40.40;46.20;;;;;;5050873;28;20049;-38
2022/06/28 08:39:32;;;;;;;4.35;0.90;;;40.80;46.00;;;;;;5050865;28;20041;-39
2022/06/28 08:42:03;;;;;;;4.90;1.00;;;40.60;45.30;;;;;;5050236;28;20119;-39
2022/06/28 08:44:35;;;;;;;3.45;0.60;;;39.90;45.20;;;;;;5050756;28;20055;-38
2022/06/28 08:47:02;;;;;;;3.28;0.47;;;38.40;45.60;;;;;;5050392;28;20049;-39
2022/06/28 08:49:55;;;;;;;4.88;0.55;;;38.40;46.00;;;;;;5050879;28;20045;-39
2022/06/28 08:52:22;;;;;;;4.20;0.68;;;37.80;46.70;;;;;;5050962;28;20108;-38
2022/06/28 08:54:52;;;;;;;5.80;0.95;;;36.60;46.30;;;;;;5050513;28;20696;-39
2022/06/28 08:57:19;;;;;;;4.47;0.55;;;36.00;46.90;;;;;;5050839;28;20056;-38
2022/06/28 08:59:46;;;;;;;2.83;0.32;;;36.30;48.00;;;;;;5050765;28;20068;-38
2022/06/28 09:02:14;;;;;;;3.90;0.60;;;36.70;48.80;;;;;;5050689;28;20402;-39
2022/06/28 09:04:45;;;;;;;3.00;0.30;;;37.10;46.70;;;;;;5050145;28;20083;-41
2022/06/28 09:07:11;;;;;;;2.67;0.47;;;37.90;46.20;;;;;;5050285;28;20065;-39
2022/06/28 09:09:37;;;;;;;4.45;0.50;;;38.70;45.00;;;;;;5049789;28;20114;-38
2022/06/28 09:12:03;;;;;;;2.83;0.40;;;38.60;45.80;;;;;;5049994;28;20041;-40
2022/06/28 09:14:31;;;;;;;3.60;0.45;;;39.10;45.10;;;;;;5050138;28;20048;-39
2022/06/28 09:16:58;;;;;;;3.78;0.47;;;39.80;44.80;;;;;;5050066;28;20069;-38
2022/06/28 09:19:38;;;;;;;4.95;1.00;;;39.80;44.00;;;;;;5050307;28;20490;-38
2022/06/28 09:22:05;;;;;;;4.70;0.45;;;40.00;45.10;;;;;;5050159;28;20120;-39
2022/06/28 09:24:31;;;;;;;3.00;0.30;;;40.80;44.30;;;;;;5050299;28;20493;-40
2022/06/28 09:27:05;;;;;;;1.90;0.45;;;41.50;43.20;;;;;;5049987;28;20547;-38
2022/06/28 09:29:47;;;;;;;1.52;0.30;;;42.30;43.50;;;;;;5049411;28;20513;-40
2022/06/28 09:32:13;;;;;;;3.95;0.30;;;43.20;43.30;;;;;;5049804;28;20037;-38
2022/06/28 09:34:55;;;;;;;3.00;0.40;;;43.60;41.40;;;;;;5050000;28;20548;-38
2022/06/28 09:37:49;;;;;;;4.07;0.50;;;43.70;40.50;;;;;;5049582;28;20041;-39
2022/06/28 09:40:28;;;;;;;2.65;0.30;;;43.80;42.20;;;;;;5049729;28;20058;-39
2022/06/28 09:43:14;;;;;;;4.60;0.50;;;43.20;39.70;;;;;;5049660;28;20428;-40
2022/06/28 09:45:42;;;;;;;3.03;0.32;;;43.00;41.50;;;;;;5048789;28;20045;-39
2022/06/28 09:48:14;;;;;;;3.83;0.40;;;43.10;40.30;;;;;;5049582;28;20114;-40
2022/06/28 09:50:40;;;;;;;8.18;0.88;;;43.30;39.80;;;;;;5049717;28;20095;-39
2022/06/28 09:53:07;;;;;;;3.70;0.57;;;43.30;38.60;;;;;;5049387;28;20036;-39
2022/06/28 09:55:33;;;;;;;4.38;0.52;;;43.40;38.90;;;;;;5049736;28;20040;-40
2022/06/28 09:58:01;;;;;;;4.25;0.63;;;43.50;39.60;;;;;;5049070;28;20487;-39
2022/06/28 10:00:27;;;;;;;7.28;0.52;;;43.50;38.00;;;;;;5049172;28;20079;-40
2022/06/28 10:02:58;;;;;;;2.75;0.32;;;43.40;37.90;;;;;;5048900;28;20045;-39
2022/06/28 10:05:24;;;;;;;3.08;0.50;;;42.90;38.50;;;;;;5049770;28;20040;-39
2022/06/28 10:07:50;;;;;;;3.92;0.50;;;42.80;38.10;;;;;;5048716;28;20507;-39
2022/06/28 10:10:17;;;;;;;3.42;0.43;;;42.80;39.30;;;;;;5048535;28;20118;-40
2022/06/28 10:15:33;;;;;;;3.15;0.50;;;40.70;39.10;;;;;;5049137;28;20502;-39
2022/06/28 10:18:03;;;;;;;4.93;0.60;;;40.60;39.10;;;;;;5048959;28;20400;-40
2022/06/28 10:20:32;;;;;;;3.67;0.60;;;40.70;40.00;;;;;;5049191;28;20037;-39
2022/06/28 10:23:24;;;;;;;3.28;0.60;;;40.50;40.60;;;;;;5048636;28;20045;-39
2022/06/28 10:26:11;;;;;;;3.33;0.35;;;40.20;39.80;;;;;;5049049;28;20460;-39
2022/06/28 10:28:40;;;;;;;3.25;0.60;;;40.40;41.80;;;;;;5049030;28;20107;-39
2022/06/28 10:31:21;;;;;;;2.50;0.47;;;40.60;41.30;;;;;;5049067;28;20070;-40
2022/06/28 10:33:48;;;;;;;2.72;0.40;;;41.00;40.60;;;;;;5048988;28;20372;-38
2022/06/28 10:36:15;;;;;;;2.63;0.30;;;41.30;40.60;;;;;;5048565;28;20072;-41
2022/06/28 10:39:09;;;;;;;3.50;0.60;;;41.60;41.10;;;;;;5048296;28;20122;-39
2022/06/28 10:41:40;;;;;;;3.25;0.30;;;41.70;41.70;;;;;;5048469;28;20041;-38
2022/06/28 10:44:27;;;;;;;3.70;0.50;;;41.40;39.90;;;;;;5048021;28;20041;-38
2022/06/28 10:47:11;;;;;;;3.92;0.40;;;41.20;39.20;;;;;;5048202;28;20159;-38
2022/06/28 10:49:45;;;;;;;3.63;0.30;;;41.50;39.90;;;;;;5048329;28;20052;-38
2022/06/28 10:52:18;;;;;;;4.82;0.30;;;41.70;39.60;;;;;;5048732;28;20539;-37
2022/06/28 10:54:52;;;;;;;4.97;0.40;;;41.10;37.20;;;;;;5048575;28;20037;-40
2022/06/28 10:57:22;;;;;;;5.55;0.63;;;39.30;39.90;;;;;;5047888;28;20490;-40
2022/06/28 10:59:51;;;;;;;3.33;0.38;;;37.70;56.00;;;;;;5048182;28;20048;-40
2022/06/28 11:02:17;;;;;;;4.25;0.40;;;36.30;42.40;;;;;;5048444;28;20053;-39
2022/06/28 11:04:45;;;;;;;2.38;0.40;;;34.20;44.40;;;;;;5048349;28;20572;-39
2022/06/28 11:07:19;;;;;;;4.22;0.35;;;34.10;44.70;;;;;;5047755;28;20414;-39
2022/06/28 11:10:06;;;;;;;2.80;0.40;;;33.20;46.20;;;;;;5047808;28;20091;-39
2022/06/28 11:12:38;;;;;;;2.05;0.28;;;32.70;47.10;;;;;;5048506;28;20048;-39
2022/06/28 11:15:08;;;;;;;5.18;0.50;;;31.40;50.40;;;;;;5048012;28;20032;-39
2022/06/28 11:17:39;;;;;;;2.60;0.20;;;30.70;51.40;;;;;;5048413;28;20045;-39
2022/06/28 11:20:13;;;;;;;3.05;0.40;;;30.10;50.00;;;;;;5047990;28;20044;-39
2022/06/28 11:22:43;;;;;;;4.10;0.68;;;29.70;52.60;;;;;;5048052;28;20044;-39
2022/06/28 11:25:20;;;;;;;5.72;0.35;;;29.20;52.40;;;;;;5049684;28;20391;-39
2022/06/28 11:27:48;;;;;;;4.15;0.30;;;28.90;53.40;;;;;;5050260;28;20040;-39
2022/06/28 11:30:15;;;;;;;2.33;0.20;;;28.20;53.60;;;;;;5050029;28;20051;-39
2022/06/28 11:32:43;;;;;;;3.47;0.30;;;27.70;53.70;;;;;;5050171;28;20044;-39
2022/06/28 11:35:19;;;;;;;5.03;0.40;;;27.50;55.00;;;;;;5050154;28;20175;-39
2022/06/28 11:37:51;;;;;;;5.60;0.40;;;27.50;54.10;;;;;;5050326;28;20432;-39
2022/06/28 11:40:28;;;;;;;3.85;0.47;;;27.60;54.30;;;;;;5049995;28;20041;-39
2022/06/28 11:43:09;;;;;;;2.78;0.40;;;27.80;56.20;;;;;;5050669;28;20116;-39
2022/06/28 11:45:54;;;;;;;3.00;0.40;;;27.80;54.20;;;;;;5050515;28;20036;-39
2022/06/28 11:48:31;;;;;;;4.35;0.50;;;27.50;55.20;;;;;;5050130;28;20106;-39
2022/06/28 11:50:59;;;;;;;4.70;0.40;;;27.20;55.50;;;;;;5050153;28;20475;-39
2022/06/28 11:53:26;;;;;;;2.95;0.20;;;27.00;56.20;;;;;;5050149;28;20052;-39
2022/06/28 11:55:57;;;;;;;6.18;0.90;;;26.70;56.70;;;;;;5048728;28;20045;-39
2022/06/28 11:58:27;;;;;;;4.82;0.40;;;26.50;55.90;;;;;;5050204;28;20044;-39
2022/06/28 12:01:13;;;;;;;1.15;0.20;;;26.40;57.30;;;;;;5050246;28;20094;-39
2022/06/28 12:03:42;;;;;;;3.72;0.28;;;26.40;56.30;;;;;;5050030;28;20554;-39
2022/06/28 12:06:18;;;;;;;5.28;0.25;;;26.30;54.60;;;;;;5049407;28;20445;-39
2022/06/28 12:08:56;;;;;;;4.25;0.40;;;26.00;56.10;;;;;;5051936;28;20120;-39
2022/06/28 12:11:35;;;;;;;4.50;0.30;;;25.60;58.50;;;;;;5053389;28;20029;-39
2022/06/28 12:14:16;;;;;;;2.08;0.20;;;25.30;57.60;;;;;;5054190;28;20382;-39
2022/06/28 12:16:46;;;;;;;2.20;0.20;;;25.00;57.60;;;;;;5053780;28;20478;-39
2022/06/28 12:19:20;;;;;;;5.55;0.40;;;24.80;59.00;;;;;;5053855;28;20067;-39
2022/06/28 12:22:03;;;;;;;6.38;0.32;;;24.70;57.80;;;;;;5054251;28;20049;-39
2022/06/28 12:24:51;;;;;;;2.53;0.63;;;24.70;56.50;;;;;;5053628;28;20044;-39
2022/06/28 12:27:24;;;;;;;4.15;0.47;;;24.70;59.70;;;;;;5053446;28;20045;-39
2022/06/28 12:29:54;;;;;;;2.70;0.25;;;24.80;59.40;;;;;;5053713;28;20068;-39
2022/06/28 12:32:20;;;;;;;2.38;0.50;;;25.10;59.00;;;;;;5053372;28;20517;-39
2022/06/28 12:34:46;;;;;;;2.33;0.30;;;25.20;59.20;;;;;;5053808;28;20359;-39
2022/06/28 12:37:13;;;;;;;1.38;0.28;;;25.00;58.30;;;;;;5053187;28;20475;-39
2022/06/28 12:39:39;;;;;;;5.25;0.50;;;24.80;57.60;;;;;;5053346;28;20053;-39
2022/06/28 12:42:06;;;;;;;5.93;0.60;;;24.50;58.20;;;;;;5053718;28;20430;-39
2022/06/28 12:44:32;;;;;;;4.07;0.38;;;24.40;60.40;;;;;;5053286;28;20491;-39
2022/06/28 12:46:58;;;;;;;3.17;0.20;;;24.60;61.80;;;;;;5053594;28;20049;-39
2022/06/28 12:49:24;;;;;;;3.22;0.20;;;24.80;60.80;;;;;;5053258;28;20051;-39
2022/06/28 12:51:51;;;;;;;2.63;0.40;;;25.10;60.50;;;;;;5053399;28;20406;-39
2022/06/28 12:54:16;;;;;;;3.92;0.30;;;25.30;60.30;;;;;;5053241;28;20140;-39
2022/06/28 12:56:43;;;;;;;3.03;0.30;;;25.40;59.30;;;;;;5053429;28;20510;-39